Time;durP1;ratioP1;P1;durP2;ratioP2;P2;SDS_P1;SDS_P2;PMS_P1;PMS_P2;Temp;Humidity;BMP_temperature;BMP_pressure;BME280_temperature;BME280_humidity;BME280_pressure;Samples;Min_cycle;Max_cycle;Signal;HPM_P1;HPM_P2
2022/08/27 00:00:42;;;;;;;10.45;7.15;;;;;;;17.30;100.00;101106.25;6213745;23;20044;-84
2022/08/27 00:03:08;;;;;;;13.07;7.20;;;;;;;16.99;100.00;101057.66;6187482;23;20044;-86
2022/08/27 00:05:35;;;;;;;9.35;7.35;;;;;;;17.19;100.00;101079.88;6188195;23;20013;-83
2022/08/27 00:08:03;;;;;;;9.38;6.80;;;;;;;17.51;100.00;101144.78;6187699;23;19997;-84
2022/08/27 00:10:29;;;;;;;10.07;7.03;;;;;;;17.27;100.00;101095.84;6187995;23;20000;-83
2022/08/27 00:12:55;;;;;;;13.50;7.03;;;;;;;17.22;100.00;101093.00;6194723;22;20054;-85
2022/08/27 00:25:41;;;;;;;12.52;7.22;;;;;;;16.80;100.00;101041.44;6193682;23;20017;-84
2022/08/27 00:35:55;;;;;;;9.80;6.80;;;;;;;17.92;100.00;101230.16;6188736;23;20021;-84
2022/08/27 00:40:56;;;;;;;12.75;6.45;;;;;;;16.77;100.00;101039.19;6165129;23;20722;-84
2022/08/27 00:43:24;;;;;;;9.13;6.70;;;;;;;17.92;100.00;101220.09;6218076;23;20011;-84
2022/08/27 00:45:54;;;;;;;8.65;6.68;;;;;;;17.07;100.00;101090.75;6242667;23;19996;-85
2022/08/27 00:53:32;;;;;;;10.90;7.03;;;;;;;18.13;100.00;101251.31;6187800;23;20242;-83
2022/08/27 01:27:07;;;;;;;8.55;6.82;;;;;;;17.24;100.00;101128.94;6200046;23;20005;-84
2022/08/27 02:29:01;;;;;;;7.78;5.82;;;;;;;16.94;100.00;101019.47;6226885;23;20027;-84
2022/08/27 02:31:27;;;;;;;9.55;6.47;;;;;;;16.76;100.00;100999.50;6218264;23;20001;-85
2022/08/27 02:39:06;;;;;;;7.10;6.00;;;;;;;16.87;100.00;100995.94;6194897;23;20061;-84
2022/08/27 02:41:32;;;;;;;8.63;6.10;;;;;;;16.76;100.00;100996.78;6184230;23;20065;-85
2022/08/27 02:43:57;;;;;;;13.32;6.60;;;;;;;16.87;100.00;101009.53;6184079;23;19993;-84
2022/08/27 02:46:23;;;;;;;6.55;5.60;;;;;;;16.84;100.00;101018.16;6158679;23;19997;-85
2022/08/27 02:48:49;;;;;;;8.32;5.60;;;;;;;17.03;100.00;101059.66;6184669;23;20038;-84
2022/08/27 02:51:14;;;;;;;7.45;5.82;;;;;;;16.57;100.00;100984.31;6184255;23;20000;-85
2022/08/27 02:53:42;;;;;;;6.50;5.53;;;;;;;16.62;100.00;101004.31;6183604;23;20009;-84
2022/08/27 02:56:08;;;;;;;7.65;5.47;;;;;;;17.06;100.00;101066.53;6184308;23;20009;-85
2022/08/27 02:58:34;;;;;;;8.10;5.93;;;;;;;16.74;100.00;101012.44;6148935;23;20021;-84
2022/08/27 03:03:35;;;;;;;9.93;6.18;;;;;;;17.19;100.00;101077.16;6137715;23;20016;-83
2022/08/27 03:06:00;;;;;;;8.75;5.93;;;;;;;17.17;100.00;101086.63;6184290;23;20013;-82
2022/08/27 03:08:26;;;;;;;7.47;5.85;;;;;;;17.25;100.00;101106.13;6184173;23;19997;-84
2022/08/27 03:10:54;;;;;;;7.55;5.95;;;;;;;16.56;100.00;100993.53;6158378;23;20013;-84
2022/08/27 03:31:27;;;;;;;7.18;6.07;;;;;;;16.40;100.00;100976.84;6202606;23;20012;-85
2022/08/27 03:33:55;;;;;;;9.35;5.72;;;;;;;16.35;100.00;100973.16;6188647;23;20055;-84
2022/08/27 03:36:21;;;;;;;10.63;6.30;;;;;;;16.31;100.00;100980.13;6188415;23;19993;-83
2022/08/27 04:04:38;;;;;;;8.82;6.07;;;;;;;16.82;100.00;101055.63;6167412;23;20068;-84
2022/08/27 04:07:04;;;;;;;8.00;6.07;;;;;;;17.42;100.00;101146.22;6187545;23;20016;-84
2022/08/27 04:09:29;;;;;;;7.72;5.97;;;;;;;17.04;100.00;101082.22;6174998;23;19997;-79
2022/08/27 04:37:46;;;;;;;9.25;5.78;;;;;;;17.23;100.00;101081.06;6164152;23;19997;-83
2022/08/27 04:47:58;;;;;;;6.47;5.38;;;;;;;17.38;100.00;101046.06;6195554;23;20005;-85
2022/08/27 04:55:29;;;;;;;8.25;5.38;;;;;;;18.81;100.00;101214.34;6153950;23;20106;-86
2022/08/27 05:05:41;;;;;;;9.20;5.38;;;;;;;17.79;100.00;101019.72;6204392;23;20009;-85
2022/08/27 05:16:52;;;;;;;8.40;4.95;;;;;;;19.31;100.00;101218.22;6157610;23;20023;31
2022/08/27 05:19:21;;;;;;;8.02;5.43;;;;;;;18.37;100.00;101063.28;6124318;23;20058;-86
2022/08/27 05:21:48;;;;;;;9.25;5.55;;;;;;;18.95;100.00;101150.22;6124160;23;19991;-86
2022/08/27 07:12:51;;;;;;;7.47;4.78;;;;;;;20.61;100.00;101077.38;6214095;23;20061;-82
2022/08/27 07:41:11;;;;;;;8.30;4.70;;;;;;;21.71;100.00;101212.94;6216091;23;20020;-85
2022/08/27 07:46:22;;;;;;;6.35;4.70;;;;;;;20.87;100.00;101061.22;6243846;23;20000;-84
2022/08/27 07:48:51;;;;;;;7.57;4.97;;;;;;;21.01;100.00;101086.22;6218289;23;20000;-85
2022/08/27 07:51:19;;;;;;;7.93;4.78;;;;;;;21.71;100.00;101201.97;6244282;23;19999;-84
2022/08/27 08:06:41;;;;;;;7.85;4.70;;;;;;;21.05;100.00;101093.63;6195597;23;20004;-81
2022/08/27 09:51:51;;;;;;;11.55;6.05;;;;;;;20.98;100.00;101265.38;6181481;23;20948;31
2022/08/27 10:03:36;;;;;;;12.75;6.70;;;;;;;20.00;100.00;101097.72;6190560;23;20080;31
2022/08/27 10:32:24;;;;;;;11.30;6.63;;;;;;;20.26;100.00;101066.06;6227467;23;20049;-82
2022/08/27 11:00:57;;;;;;;9.05;6.40;;;;;;;20.93;100.00;101128.56;6206116;23;20015;-82
2022/08/27 12:36:34;;;;;;;10.02;7.22;;;;;;;21.76;100.00;101207.50;6197899;23;20013;-84
2022/08/27 12:39:01;;;;;;;9.88;7.05;;;;;;;21.23;100.00;101124.41;6217909;23;20001;-85
2022/08/27 13:07:26;;;;;;;8.60;6.60;;;;;;;21.82;100.00;101214.66;6197157;22;20747;-78
2022/08/27 13:17:43;;;;;;;8.23;6.72;;;;;;;22.28;100.00;101265.13;6188702;23;20012;-78
2022/08/27 13:22:45;;;;;;;9.65;7.22;;;;;;;21.31;100.00;101091.06;6225837;23;20009;-81
2022/08/27 13:25:31;;;;;;;10.15;7.95;;;;;;;22.60;100.00;101257.84;6213872;23;20023;-82
2022/08/27 13:28:06;;;;;;;12.75;8.63;;;;;;;22.82;100.00;101260.41;6216903;23;20015;-83
2022/08/27 13:30:34;;;;;;;11.90;8.30;;;;;;;21.84;100.00;101061.81;6243256;23;20038;-83
2022/08/27 13:33:02;;;;;;;12.18;8.13;;;;;;;21.87;100.00;101077.72;6243087;23;20004;-83
2022/08/27 13:35:31;;;;;;;9.77;7.80;;;;;;;21.99;100.00;101118.59;6242984;23;20016;-84
2022/08/27 13:37:57;;;;;;;9.48;8.13;;;;;;;21.57;100.00;101092.91;6217368;23;20004;-83
2022/08/27 13:40:51;;;;;;;10.30;7.68;;;;;;;22.13;100.00;101203.88;6217317;23;20004;-83
2022/08/27 13:43:17;;;;;;;7.40;6.43;;;;;;;22.18;100.00;101253.25;6242545;23;20056;-82
2022/08/27 13:45:53;;;;;;;8.73;7.20;;;;;;;20.73;100.00;101029.91;6242809;23;19991;-82
2022/08/27 13:48:20;;;;;;;8.77;6.30;;;;;;;20.92;100.00;101069.44;6219154;23;20039;-84
2022/08/27 13:50:52;;;;;;;8.48;6.80;;;;;;;20.81;100.00;101052.13;6244479;23;20043;-82
2022/08/27 13:56:26;;;;;;;11.50;7.25;;;;;;;21.75;100.00;101195.69;6244492;23;20024;-82
2022/08/27 13:58:51;;;;;;;9.93;6.70;;;;;;;21.77;100.00;101203.66;6244060;23;20069;-82
2022/08/27 14:06:33;;;;;;;10.60;7.28;;;;;;;20.67;100.00;101042.72;6214552;23;20783;-80
2022/08/27 14:09:09;;;;;;;10.93;6.60;;;;;;;21.23;100.00;101144.41;6213680;23;20017;-84
2022/08/27 14:11:36;;;;;;;12.60;7.68;;;;;;;21.90;100.00;101252.50;6214738;23;20044;-86
2022/08/27 14:14:02;;;;;;;11.77;7.20;;;;;;;20.73;100.00;101084.59;6214578;23;20021;-83
2022/08/27 14:16:31;;;;;;;10.45;7.03;;;;;;;20.93;100.00;101128.56;6189120;23;20048;-84
2022/08/27 14:19:08;;;;;;;9.00;7.15;;;;;;;20.56;100.00;101060.97;6214932;23;19985;-83
2022/08/27 14:34:29;;;;;;;9.10;6.88;;;;;;;20.47;100.00;101084.34;6235104;23;20054;-83
2022/08/27 14:36:55;;;;;;;12.07;6.85;;;;;;;20.45;100.00;101072.00;6245089;23;19996;-84
2022/08/27 14:39:21;;;;;;;10.23;7.15;;;;;;;21.49;100.00;101224.84;6219068;23;19999;-84
2022/08/27 14:59:52;;;;;;;7.90;6.10;;;;;;;20.85;100.00;101137.22;6207704;23;20025;-80
2022/08/27 15:02:20;;;;;;;7.13;5.35;;;;;;;21.05;100.00;101175.69;6182904;23;20080;-78
2022/08/27 15:04:45;;;;;;;6.30;5.38;;;;;;;21.38;100.00;101247.72;6160424;23;20020;-79
2022/08/27 15:07:10;;;;;;;11.30;5.53;;;;;;;21.17;100.00;101249.44;6135735;23;20088;-82
2022/08/27 15:09:36;;;;;;;7.43;5.72;;;;;;;20.90;100.00;101248.63;6168375;23;20025;-82
2022/08/27 15:14:37;;;;;;;23.70;8.50;;;;;;;19.30;100.00;101041.91;6191367;23;20021;-79
2022/08/27 15:17:06;;;;;;;15.23;8.00;;;;;;;20.23;100.00;101192.28;6202779;23;20037;-81
2022/08/27 15:19:32;;;;;;;13.20;8.00;;;;;;;20.32;100.00;101180.66;6183747;23;20004;-81
2022/08/27 15:22:20;;;;;;;17.38;8.38;;;;;;;20.05;100.00;101117.75;6178185;23;19997;-82
2022/08/27 15:24:50;;;;;;;15.18;7.93;;;;;;;19.58;100.00;101047.22;6182187;23;20001;-81
2022/08/27 15:27:15;;;;;;;14.52;8.20;;;;;;;20.31;100.00;101153.59;6182975;23;20015;-81
2022/08/27 15:29:42;;;;;;;15.63;8.63;;;;;;;19.64;100.00;101038.06;6186995;23;20013;-82
2022/08/27 15:34:43;;;;;;;15.25;8.90;;;;;;;20.30;100.00;101130.09;6204424;23;20036;-80
2022/08/27 15:39:37;;;;;;;15.05;9.40;;;;;;;20.14;100.00;101137.25;6180929;23;20010;-83
2022/08/27 15:42:03;;;;;;;13.18;8.68;;;;;;;19.42;100.00;101029.81;6183576;23;20001;-83
2022/08/27 15:44:28;;;;;;;14.55;7.85;;;;;;;19.59;100.00;101057.06;6158145;23;20012;-83
2022/08/27 15:46:54;;;;;;;16.02;8.25;;;;;;;19.54;100.00;101057.00;6158044;23;20033;-82
2022/08/27 15:49:19;;;;;;;15.02;9.45;;;;;;;20.27;100.00;101156.00;6180939;23;20088;-81
2022/08/27 15:51:45;;;;;;;12.77;8.25;;;;;;;20.07;100.00;101126.53;6175218;23;20061;-81
2022/08/27 15:54:11;;;;;;;14.50;7.55;;;;;;;20.90;100.00;101260.38;6146605;23;20012;-81
2022/08/27 15:56:36;;;;;;;10.90;6.70;;;;;;;20.80;100.00;101249.31;6177277;23;20025;-82
2022/08/27 15:59:02;;;;;;;14.05;7.78;;;;;;;20.74;100.00;101250.34;6179509;23;20025;-81
2022/08/27 16:01:30;;;;;;;12.65;8.13;;;;;;;20.40;100.00;101191.16;6148364;23;20005;-82
2022/08/27 16:03:58;;;;;;;12.02;8.02;;;;;;;20.85;100.00;101252.09;6178072;23;20036;-81
2022/08/27 16:06:24;;;;;;;11.45;7.97;;;;;;;20.88;100.00;101246.94;6176253;23;20009;-81
2022/08/27 16:08:50;;;;;;;10.13;7.10;;;;;;;20.81;100.00;101234.56;6148589;23;20014;-82
2022/08/27 16:11:15;;;;;;;8.40;6.60;;;;;;;20.84;100.00;101240.34;6130015;23;20018;-82
2022/08/27 16:13:42;;;;;;;10.95;7.00;;;;;;;20.67;100.00;101216.91;6156837;23;20001;-82
2022/08/27 16:16:09;;;;;;;8.70;6.80;;;;;;;20.72;100.00;101241.56;6153195;23;20016;-81
2022/08/27 16:18:35;;;;;;;11.07;6.40;;;;;;;20.62;100.00;101236.78;6154384;23;20025;-83
2022/08/27 16:21:01;;;;;;;7.57;5.93;;;;;;;20.65;100.00;101236.28;6157579;23;20037;-82
2022/08/27 16:23:28;;;;;;;8.10;6.10;;;;;;;20.69;100.00;101234.69;6181995;23;19997;-82
2022/08/27 16:25:54;;;;;;;11.60;6.45;;;;;;;20.71;100.00;101234.44;6150018;23;20001;-83
2022/08/27 16:28:21;;;;;;;9.73;7.10;;;;;;;20.69;100.00;101228.41;6175483;23;20013;-82
2022/08/27 16:30:47;;;;;;;9.57;7.82;;;;;;;20.61;100.00;101211.38;6180647;23;20015;-81
2022/08/27 16:33:13;;;;;;;9.07;7.47;;;;;;;20.75;100.00;101230.09;6176811;23;20013;-81
2022/08/27 16:35:39;;;;;;;9.10;7.50;;;;;;;20.78;100.00;101237.81;6122062;23;20009;-81
2022/08/27 16:38:22;;;;;;;7.63;6.75;;;;;;;20.80;100.00;101233.75;6177067;23;20363;-82
2022/08/27 16:40:53;;;;;;;7.90;6.82;;;;;;;20.81;100.00;101242.75;6180501;23;20009;-81
2022/08/27 16:43:22;;;;;;;9.68;7.60;;;;;;;20.87;100.00;101248.03;6154814;23;20001;-82
2022/08/27 16:45:49;;;;;;;9.10;6.97;;;;;;;20.91;100.00;101247.53;6179578;23;20009;-81
2022/08/27 16:51:00;;;;;;;9.52;6.60;;;;;;;20.93;100.00;101253.56;6153656;23;20020;-82
2022/08/27 16:53:26;;;;;;;6.65;5.90;;;;;;;20.84;100.00;101237.59;6147939;23;20009;-80
2022/08/27 16:55:52;;;;;;;8.48;6.15;;;;;;;20.96;100.00;101253.88;6172449;23;20044;-82
2022/08/27 16:58:20;;;;;;;6.45;5.80;;;;;;;20.98;100.00;101254.44;6117265;23;20005;-81
2022/08/27 17:00:53;;;;;;;9.40;6.40;;;;;;;20.75;100.00;101220.00;6173777;23;20388;-81
2022/08/27 17:03:20;;;;;;;7.20;6.43;;;;;;;20.89;100.00;101255.97;6174684;23;20011;-81
2022/08/27 17:05:46;;;;;;;7.95;6.20;;;;;;;20.91;100.00;101253.81;6172768;23;20052;-82
2022/08/27 17:08:12;;;;;;;9.23;6.65;;;;;;;20.98;100.00;101248.97;6122639;23;20017;-83
2022/08/27 17:23:37;;;;;;;8.55;6.10;;;;;;;20.82;100.00;101245.22;6203929;23;20031;-80
2022/08/27 17:26:05;;;;;;;7.68;6.28;;;;;;;19.69;100.00;101053.66;6172151;23;20026;-83
2022/08/27 17:28:31;;;;;;;8.27;5.75;;;;;;;19.60;100.00;101044.22;6161476;23;20010;-83
2022/08/27 17:33:40;;;;;;;7.57;6.25;;;;;;;19.86;100.00;101080.91;6210334;23;20023;-80
2022/08/27 17:49:01;;;;;;;9.10;6.25;;;;;;;20.37;100.00;101172.53;6219733;23;20008;-81
2022/08/27 17:51:27;;;;;;;8.13;5.88;;;;;;;19.82;100.00;101107.09;6209572;23;20031;-80
2022/08/27 17:59:03;;;;;;;6.88;6.13;;;;;;;19.56;100.00;101084.88;6201571;23;20011;-83
2022/08/27 18:01:31;;;;;;;8.57;6.20;;;;;;;20.61;100.00;101271.53;6242628;23;20004;-82
2022/08/27 18:03:57;;;;;;;8.43;6.25;;;;;;;19.14;100.00;101036.25;6241925;23;19989;-81
2022/08/27 18:06:25;;;;;;;8.05;6.25;;;;;;;19.20;100.00;101053.50;6204001;23;20040;-82
2022/08/27 18:08:51;;;;;;;8.20;6.38;;;;;;;19.13;100.00;101047.41;6182072;23;20005;-83
2022/08/27 18:11:17;;;;;;;9.50;6.60;;;;;;;19.34;100.00;101090.31;6181466;23;20338;-82
2022/08/27 18:13:46;;;;;;;9.18;6.57;;;;;;;19.98;100.00;101199.06;6181427;23;20009;-81
2022/08/27 18:16:12;;;;;;;8.60;6.43;;;;;;;19.16;100.00;101072.28;6181891;23;20081;-82
2022/08/27 18:18:38;;;;;;;8.13;6.60;;;;;;;19.81;100.00;101173.72;6181756;23;20005;-82
2022/08/27 18:21:04;;;;;;;7.65;6.43;;;;;;;19.07;100.00;101072.94;6181768;23;20104;-81
2022/08/27 18:23:29;;;;;;;9.70;7.00;;;;;;;18.75;100.00;101038.09;6181925;23;20009;-81
2022/08/27 18:25:55;;;;;;;9.48;7.00;;;;;;;18.89;100.00;101066.69;6180566;23;20101;-82
2022/08/27 18:28:22;;;;;;;8.65;6.93;;;;;;;20.02;100.00;101243.91;6181789;23;20009;-81
2022/08/27 18:33:18;;;;;;;10.90;7.60;;;;;;;18.80;100.00;101068.16;6180012;23;20010;-83
2022/08/27 18:35:44;;;;;;;11.15;8.43;;;;;;;18.77;100.00;101074.97;6181005;23;20016;-82
2022/08/27 18:38:10;;;;;;;10.00;7.60;;;;;;;18.69;100.00;101061.69;6182066;23;19994;-82
2022/08/27 18:40:45;;;;;;;8.32;7.53;;;;;;;19.76;100.00;101241.88;6153461;23;19998;-82
2022/08/27 18:43:12;;;;;;;8.63;7.40;;;;;;;19.60;100.00;101218.94;6178952;23;20003;-82
2022/08/27 18:45:38;;;;;;;14.30;8.25;;;;;;;19.07;100.00;101149.31;6178137;23;19989;-82
2022/08/27 18:48:16;;;;;;;11.65;9.32;;;;;;;18.88;100.00;101126.94;6156231;23;20009;-82
2022/08/27 18:50:47;;;;;;;10.93;8.63;;;;;;;18.47;100.00;101074.38;6157622;23;20030;-82
2022/08/27 18:53:15;;;;;;;11.82;8.32;;;;;;;19.83;100.00;101289.78;6183060;23;20052;-83
2022/08/27 18:55:41;;;;;;;11.63;8.85;;;;;;;18.48;100.00;101076.03;6156502;23;19993;-82
2022/08/27 18:58:06;;;;;;;11.10;8.15;;;;;;;18.54;100.00;101088.66;6179890;23;19981;-82
2022/08/27 19:00:32;;;;;;;11.75;9.10;;;;;;;18.58;100.00;101106.19;6154259;23;20001;-82
2022/08/27 19:03:00;;;;;;;12.48;9.73;;;;;;;18.82;100.00;101119.72;6180686;23;20010;-82
2022/08/27 19:05:27;;;;;;;14.57;9.60;;;;;;;18.90;100.00;101147.41;6179876;23;20009;-82
2022/08/27 19:07:54;;;;;;;14.57;8.77;;;;;;;19.68;100.00;101264.97;6154192;23;20145;-82
2022/08/27 19:10:19;;;;;;;12.05;9.00;;;;;;;18.47;100.00;101082.53;6179284;23;20002;-82
2022/08/27 19:12:46;;;;;;;11.57;9.05;;;;;;;18.39;100.00;101085.69;6178441;23;20033;-81
2022/08/27 19:15:13;;;;;;;13.35;9.05;;;;;;;18.30;100.00;101064.25;6182296;23;20010;-82
2022/08/27 19:17:42;;;;;;;11.18;9.27;;;;;;;19.71;100.00;101305.44;6182647;23;19998;-83
2022/08/27 19:20:08;;;;;;;15.77;9.30;;;;;;;18.25;100.00;101077.81;6214365;23;20020;-82
2022/08/27 19:27:45;;;;;;;13.40;10.23;;;;;;;18.13;100.00;101073.47;6218099;23;20031;-84
2022/08/27 19:30:12;;;;;;;15.18;10.63;;;;;;;19.02;100.00;101218.25;6243818;23;20009;-84
2022/08/27 19:32:37;;;;;;;12.23;10.10;;;;;;;18.43;100.00;101144.06;6230336;23;20008;-82
2022/08/27 19:35:03;;;;;;;13.02;9.68;;;;;;;18.64;100.00;101194.31;6240813;23;20009;-82
2022/08/27 19:37:30;;;;;;;12.27;8.52;;;;;;;18.39;100.00;101176.41;6239597;23;20005;-80
2022/08/27 19:39:56;;;;;;;11.00;8.57;;;;;;;18.19;100.00;101162.38;6185568;23;20005;-81
2022/08/27 19:42:21;;;;;;;11.68;8.70;;;;;;;17.75;100.00;101078.41;6179941;23;20092;-80
2022/08/27 19:44:47;;;;;;;16.95;11.27;;;;;;;19.00;100.00;101280.38;6199274;23;20454;-81
2022/08/27 19:47:15;;;;;;;17.73;11.23;;;;;;;19.09;100.00;101308.94;6182801;23;20016;-81
2022/08/27 19:49:48;;;;;;;13.70;10.88;;;;;;;19.02;100.00;101292.72;6204085;22;20842;-80
2022/08/27 19:52:13;;;;;;;12.38;9.13;;;;;;;18.84;100.00;101282.00;6213806;23;20008;-81
2022/08/27 19:54:39;;;;;;;11.65;8.18;;;;;;;18.73;100.00;101274.69;6242769;22;20027;-83
2022/08/27 20:07:25;;;;;;;9.35;7.82;;;;;;;17.41;100.00;101095.59;6200874;22;20020;-84
